Time;durP1;ratioP1;P1;durP2;ratioP2;P2;SDS_P1;SDS_P2;PMS_P1;PMS_P2;Temp;Humidity;BMP_temperature;BMP_pressure;BME280_temperature;BME280_humidity;BME280_pressure;Samples;Min_cycle;Max_cycle;Signal;HPM_P1;HPM_P2
2021/08/29 00:00:25;;;;;;;484.33;455.23;;;;;;;-142.25;100.00;58004.16;5079106;28;20345;-66
2021/08/29 00:02:51;;;;;;;468.60;441.20;;;;;;;-142.25;100.00;58004.16;5078037;28;20074;-66
2021/08/29 00:05:16;;;;;;;478.20;449.35;;;;;;;-142.25;100.00;58004.16;5078184;28;20039;-66
2021/08/29 00:07:42;;;;;;;467.20;440.13;;;;;;;-142.25;100.00;58004.16;5077274;28;20040;-66
2021/08/29 00:10:08;;;;;;;480.80;452.40;;;;;;;-142.25;100.00;58004.16;5060095;28;20085;-67
2021/08/29 00:12:34;;;;;;;460.17;432.80;;;;;;;-142.25;100.00;58004.16;5081149;28;20040;-67
2021/08/29 00:14:59;;;;;;;467.85;440.25;;;;;;;-142.25;100.00;58004.16;5079903;28;20035;-67
2021/08/29 00:17:25;;;;;;;464.13;436.33;;;;;;;-142.25;100.00;58004.16;5077400;28;20316;-67
2021/08/29 00:19:51;;;;;;;472.10;443.70;;;;;;;-142.25;100.00;58004.16;5077666;28;20456;-67
2021/08/29 00:22:17;;;;;;;477.55;449.27;;;;;;;-142.25;100.00;58004.16;5077884;28;20036;-67
2021/08/29 00:24:43;;;;;;;504.58;473.58;;;;;;;-142.25;100.00;58004.16;5078558;28;20042;-66
2021/08/29 00:27:08;;;;;;;513.75;481.92;;;;;;;-142.25;100.00;58004.16;5076032;28;20380;-66
2021/08/29 00:29:34;;;;;;;524.67;491.48;;;;;;;-142.25;100.00;58004.16;5078367;28;20085;-67
2021/08/29 00:31:59;;;;;;;516.88;483.75;;;;;;;-142.25;100.00;58004.16;5078928;28;20047;-66
2021/08/29 00:34:24;;;;;;;550.65;514.55;;;;;;;-142.25;100.00;58004.16;5080308;28;20060;-67
2021/08/29 00:36:50;;;;;;;535.33;500.13;;;;;;;-142.25;100.00;58004.16;5076396;28;20020;-67
2021/08/29 00:39:16;;;;;;;519.90;485.25;;;;;;;-142.25;100.00;58004.16;5079949;28;20373;-66
2021/08/29 00:41:42;;;;;;;543.95;508.05;;;;;;;-142.25;100.00;58004.16;5076835;28;20042;-67
2021/08/29 00:44:11;;;;;;;527.20;493.08;;;;;;;-142.25;100.00;58004.16;5078012;28;20036;-66
2021/08/29 00:46:36;;;;;;;528.72;494.35;;;;;;;-142.25;100.00;58004.16;5076559;28;20043;-66
2021/08/29 00:49:02;;;;;;;514.38;481.83;;;;;;;-142.25;100.00;58004.16;5079360;28;20028;-66
2021/08/29 00:51:27;;;;;;;512.45;480.58;;;;;;;-142.25;100.00;58004.16;5078449;28;20377;-66
2021/08/29 00:53:54;;;;;;;501.40;470.40;;;;;;;-142.25;100.00;58004.16;5076292;28;20119;-66
2021/08/29 00:56:20;;;;;;;539.80;505.23;;;;;;;-142.25;100.00;58004.16;5077829;28;20032;-66
2021/08/29 00:58:50;;;;;;;536.85;502.17;;;;;;;-142.25;100.00;58004.16;5079055;28;20104;-66
2021/08/29 01:01:17;;;;;;;534.78;500.10;;;;;;;-142.25;100.00;58004.16;5077724;28;20028;-66
2021/08/29 01:03:43;;;;;;;532.30;498.02;;;;;;;-142.25;100.00;58004.16;5076834;28;20423;-66
2021/08/29 01:06:25;;;;;;;546.50;511.80;;;;;;;-142.25;100.00;58004.16;5077330;28;20040;-66
2021/08/29 01:08:59;;;;;;;534.13;499.90;;;;;;;-142.25;100.00;58004.16;5077730;28;20032;-66
2021/08/29 01:11:26;;;;;;;533.53;498.67;;;;;;;-142.25;100.00;58004.16;5077197;28;20036;-66
2021/08/29 01:13:59;;;;;;;554.72;518.92;;;;;;;-142.25;100.00;58004.16;5075990;28;20373;-66
2021/08/29 01:16:31;;;;;;;545.15;509.33;;;;;;;-142.25;100.00;58004.16;5082085;28;20027;-66
2021/08/29 01:18:58;;;;;;;535.33;501.85;;;;;;;-142.25;100.00;58004.16;5081246;28;20036;-66
2021/08/29 01:21:27;;;;;;;532.03;498.77;;;;;;;-142.25;100.00;58004.16;5079658;28;20032;-66
2021/08/29 01:23:58;;;;;;;543.65;508.17;;;;;;;-142.25;100.00;58004.16;5080422;28;20055;-66
2021/08/29 01:26:54;;;;;;;545.60;511.23;;;;;;;-142.25;100.00;58004.16;5081343;28;20387;-65
2021/08/29 01:29:23;;;;;;;546.95;511.65;;;;;;;-142.25;100.00;58004.16;5080747;28;20040;-66
2021/08/29 01:31:48;;;;;;;558.65;521.65;;;;;;;-142.25;100.00;58004.16;5081871;28;20028;-66
2021/08/29 01:34:16;;;;;;;558.45;521.40;;;;;;;-142.25;100.00;58004.16;5081357;28;20453;-65
2021/08/29 01:36:44;;;;;;;558.72;520.67;;;;;;;-142.25;100.00;58004.16;5073563;28;20024;-66
2021/08/29 01:39:10;;;;;;;547.28;510.15;;;;;;;-142.25;100.00;58004.16;5079956;28;20031;-66
2021/08/29 01:41:39;;;;;;;542.53;506.85;;;;;;;-142.25;100.00;58004.16;5079090;28;20028;-66
2021/08/29 01:44:05;;;;;;;557.00;520.65;;;;;;;-142.25;100.00;58004.16;5079461;28;20029;-66
2021/08/29 01:46:31;;;;;;;552.22;515.88;;;;;;;-142.25;100.00;58004.16;5080480;28;20101;-66
2021/08/29 01:48:57;;;;;;;543.22;507.67;;;;;;;-142.25;100.00;58004.16;5081135;28;20039;-66
2021/08/29 01:51:22;;;;;;;542.65;507.95;;;;;;;-142.25;100.00;58004.16;5081183;28;20028;-66
2021/08/29 01:53:48;;;;;;;547.33;505.23;;;;;;;-142.25;100.00;58004.16;5081862;28;20060;-67
2021/08/29 01:56:13;;;;;;;538.95;502.17;;;;;;;-142.25;100.00;58004.16;5079734;28;20024;-66
2021/08/29 01:58:39;;;;;;;557.95;516.85;;;;;;;-142.25;100.00;58004.16;5080309;28;20079;-67
2021/08/29 02:01:09;;;;;;;540.50;497.73;;;;;;;-142.25;100.00;58004.16;5080166;28;20117;-66
2021/08/29 02:03:36;;;;;;;554.20;510.20;;;;;;;-142.25;100.00;58004.16;5079843;28;20107;-66
2021/08/29 02:06:26;;;;;;;528.00;490.85;;;;;;;-142.25;100.00;58004.16;5080692;28;20036;-66
2021/08/29 02:08:58;;;;;;;545.65;504.60;;;;;;;-142.25;100.00;58004.16;5078698;28;20037;-66
2021/08/29 02:11:27;;;;;;;523.33;480.90;;;;;;;-142.25;100.00;58004.16;5081417;28;20032;-67
2021/08/29 02:13:56;;;;;;;545.28;501.48;;;;;;;-142.25;100.00;58004.16;5080078;28;20024;-66
2021/08/29 02:16:22;;;;;;;530.35;487.92;;;;;;;-142.25;100.00;58004.16;5081627;28;20082;-67
2021/08/29 02:18:52;;;;;;;538.15;495.42;;;;;;;-142.25;100.00;58004.16;5078591;28;20391;-66
2021/08/29 02:21:19;;;;;;;525.58;485.05;;;;;;;-142.25;100.00;58004.16;5081060;28;20047;-67
2021/08/29 02:23:46;;;;;;;535.45;493.38;;;;;;;-142.25;100.00;58004.16;5078367;28;20024;-66
2021/08/29 02:26:13;;;;;;;530.30;487.50;;;;;;;-142.25;100.00;58004.16;5078741;28;20043;-66
2021/08/29 02:28:38;;;;;;;526.17;485.35;;;;;;;-142.25;100.00;58004.16;5081194;28;20036;-66
2021/08/29 02:31:05;;;;;;;534.17;492.52;;;;;;;-142.25;100.00;58004.16;5079153;28;20028;-66
2021/08/29 02:33:30;;;;;;;522.05;480.50;;;;;;;-142.25;100.00;58004.16;5079942;28;20142;-66
2021/08/29 02:35:58;;;;;;;513.78;474.33;;;;;;;-142.25;100.00;58004.16;5061993;28;20452;-67
2021/08/29 02:38:25;;;;;;;519.72;480.25;;;;;;;-142.25;100.00;58004.16;5080227;28;20029;-67
2021/08/29 02:40:54;;;;;;;520.47;480.52;;;;;;;-142.25;100.00;58004.16;5078316;28;20055;-67
2021/08/29 02:43:20;;;;;;;537.92;496.27;;;;;;;-142.25;100.00;58004.16;5071729;28;20024;-67
2021/08/29 02:45:47;;;;;;;521.65;484.33;;;;;;;-142.25;100.00;58004.16;5077002;28;20035;-66
2021/08/29 02:48:12;;;;;;;515.42;476.30;;;;;;;-142.25;100.00;58004.16;5076750;28;20034;-66
2021/08/29 02:50:39;;;;;;;516.30;479.83;;;;;;;-142.25;100.00;58004.16;5081238;28;20036;-67
2021/08/29 02:53:05;;;;;;;521.65;486.38;;;;;;;-142.25;100.00;58004.16;5078950;28;20032;-66
2021/08/29 02:55:31;;;;;;;520.45;482.92;;;;;;;-142.25;100.00;58004.16;5079643;28;20035;-66
2021/08/29 02:58:04;;;;;;;518.65;481.90;;;;;;;-142.25;100.00;58004.16;5078172;28;20373;-67
2021/08/29 03:00:30;;;;;;;506.10;471.30;;;;;;;-142.25;100.00;58004.16;5080188;28;20035;-67
2021/08/29 03:02:56;;;;;;;511.30;475.42;;;;;;;-142.25;100.00;58004.16;5078322;28;20342;-66
2021/08/29 03:05:21;;;;;;;521.17;485.30;;;;;;;-142.25;100.00;58004.16;5078089;28;20373;-67
2021/08/29 03:07:47;;;;;;;503.80;468.17;;;;;;;-142.25;100.00;58004.16;5078836;28;20348;-66
2021/08/29 03:10:13;;;;;;;498.00;464.05;;;;;;;-142.25;100.00;58004.16;5079366;28;20091;-66
2021/08/29 03:12:40;;;;;;;521.20;486.40;;;;;;;-142.25;100.00;58004.16;5080141;28;20032;-66
2021/08/29 03:15:06;;;;;;;498.13;464.85;;;;;;;-142.25;100.00;58004.16;5080240;28;20407;-66
2021/08/29 03:17:33;;;;;;;505.10;471.85;;;;;;;-142.25;100.00;58004.16;5078951;28;20027;-66
2021/08/29 03:20:01;;;;;;;518.85;484.40;;;;;;;-142.25;100.00;58004.16;5079983;28;20468;-66
2021/08/29 03:22:27;;;;;;;496.45;464.33;;;;;;;-142.25;100.00;58004.16;5078456;28;20028;-66
2021/08/29 03:24:53;;;;;;;485.85;454.33;;;;;;;-142.25;100.00;58004.16;5078502;28;20032;-66
2021/08/29 03:27:19;;;;;;;500.02;468.13;;;;;;;-142.25;100.00;58004.16;5079503;28;20035;-66
2021/08/29 03:29:45;;;;;;;522.05;487.25;;;;;;;-142.25;100.00;58004.16;5078750;28;20140;-66
2021/08/29 03:32:10;;;;;;;523.25;487.52;;;;;;;-142.25;100.00;58004.16;5079534;28;20036;-66
2021/08/29 03:34:36;;;;;;;517.53;481.25;;;;;;;-142.25;100.00;58004.16;5080472;28;20379;-66
2021/08/29 03:37:05;;;;;;;489.88;458.20;;;;;;;-142.25;100.00;58004.16;5078542;28;20052;-67
2021/08/29 03:39:32;;;;;;;492.50;460.30;;;;;;;-142.25;100.00;58004.16;5077246;28;20040;-66
2021/08/29 03:41:58;;;;;;;457.13;428.55;;;;;;;-142.25;100.00;58004.16;5077441;28;20048;-67
2021/08/29 03:44:24;;;;;;;492.27;460.92;;;;;;;-142.25;100.00;58004.16;5076927;28;20032;-66
2021/08/29 03:46:51;;;;;;;470.85;441.65;;;;;;;-142.25;100.00;58004.16;5078486;28;20032;-67
2021/08/29 03:49:16;;;;;;;438.73;411.98;;;;;;;-142.25;100.00;58004.16;5078373;28;20032;-66
2021/08/29 03:51:42;;;;;;;440.83;414.50;;;;;;;-142.25;100.00;58004.16;5076770;28;20028;-66
2021/08/29 03:54:08;;;;;;;458.60;430.17;;;;;;;-142.25;100.00;58004.16;5077319;28;20028;-66
2021/08/29 03:56:37;;;;;;;460.88;432.60;;;;;;;-142.25;100.00;58004.16;5077759;28;20038;-65
2021/08/29 03:59:03;;;;;;;481.75;451.50;;;;;;;-142.25;100.00;58004.16;5078755;28;20030;-65
2021/08/29 04:01:29;;;;;;;478.85;448.00;;;;;;;-142.25;100.00;58004.16;5076442;28;20032;-66
2021/08/29 04:03:55;;;;;;;474.50;444.08;;;;;;;-142.25;100.00;58004.16;5080259;28;20165;-66
2021/08/29 04:06:22;;;;;;;462.25;433.00;;;;;;;-142.25;100.00;58004.16;5079123;28;20020;-65
2021/08/29 04:08:57;;;;;;;480.67;451.10;;;;;;;-142.25;100.00;58004.16;5078785;28;20047;-66
2021/08/29 04:11:26;;;;;;;471.08;440.73;;;;;;;-142.25;100.00;58004.16;5076680;28;20194;-66
2021/08/29 04:13:54;;;;;;;471.45;441.33;;;;;;;-142.25;100.00;58004.16;5077692;28;20074;-66
2021/08/29 04:16:20;;;;;;;491.02;458.83;;;;;;;-142.25;100.00;58004.16;5077200;28;20024;-66
2021/08/29 04:18:46;;;;;;;480.38;449.88;;;;;;;-142.25;100.00;58004.16;5078587;28;20047;-66
2021/08/29 04:21:15;;;;;;;469.35;439.10;;;;;;;-142.25;100.00;58004.16;5076961;28;20304;-66
2021/08/29 04:23:40;;;;;;;451.77;423.40;;;;;;;-142.25;100.00;58004.16;5079126;28;20369;-66
2021/08/29 04:26:07;;;;;;;460.13;431.00;;;;;;;-142.25;100.00;58004.16;5077166;28;20055;-66
2021/08/29 04:28:32;;;;;;;456.60;427.95;;;;;;;-142.25;100.00;58004.16;5075948;28;20374;-66
2021/08/29 04:31:01;;;;;;;467.35;436.98;;;;;;;-142.25;100.00;58004.16;5078904;28;20097;-66
2021/08/29 04:33:26;;;;;;;478.13;447.45;;;;;;;-142.25;100.00;58004.16;5077633;28;20087;-66
2021/08/29 04:35:53;;;;;;;460.42;430.70;;;;;;;-142.25;100.00;58004.16;5079819;28;20084;-66
2021/08/29 04:38:19;;;;;;;478.30;447.25;;;;;;;-142.25;100.00;58004.16;5078631;28;20029;-66
2021/08/29 04:40:45;;;;;;;472.33;442.10;;;;;;;-142.25;100.00;58004.16;5078328;28;20343;-66
2021/08/29 04:43:10;;;;;;;461.58;432.23;;;;;;;-142.25;100.00;58004.16;5077054;28;20040;-65
2021/08/29 04:45:35;;;;;;;463.42;434.38;;;;;;;-142.25;100.00;58004.16;5079756;28;20217;-65
2021/08/29 04:48:01;;;;;;;442.10;414.27;;;;;;;-142.25;100.00;58004.16;5075368;28;20093;-65
2021/08/29 04:50:29;;;;;;;461.55;431.35;;;;;;;-142.25;100.00;58004.16;5080072;28;20040;-65
2021/08/29 04:52:54;;;;;;;483.95;453.30;;;;;;;-142.25;100.00;58004.16;5082633;28;20058;-65
2021/08/29 04:55:19;;;;;;;462.23;432.55;;;;;;;-142.25;100.00;58004.16;5085547;28;20343;-65
2021/08/29 04:57:45;;;;;;;434.75;408.58;;;;;;;-142.25;100.00;58004.16;5082179;28;20036;-65
2021/08/29 05:00:10;;;;;;;437.77;410.02;;;;;;;-142.25;100.00;58004.16;5084154;28;20456;-65
2021/08/29 05:02:36;;;;;;;463.30;434.70;;;;;;;-142.25;100.00;58004.16;5083863;28;20044;-65
2021/08/29 05:05:02;;;;;;;446.45;419.23;;;;;;;-142.25;100.00;58004.16;5083959;28;20036;-65
2021/08/29 05:07:27;;;;;;;428.65;402.42;;;;;;;-142.25;100.00;58004.16;5083381;28;20056;-66
2021/08/29 05:09:52;;;;;;;439.42;412.67;;;;;;;-142.25;100.00;58004.16;5082921;28;20028;-65
2021/08/29 05:12:18;;;;;;;441.25;414.05;;;;;;;-142.25;100.00;58004.16;5084855;28;20037;-65
2021/08/29 05:14:43;;;;;;;423.13;396.77;;;;;;;-142.25;100.00;58004.16;5084669;28;20031;-65
2021/08/29 05:17:08;;;;;;;443.02;415.77;;;;;;;-142.25;100.00;58004.16;5082921;28;20028;-65
2021/08/29 05:19:34;;;;;;;320.75;303.48;;;;;;;-142.25;100.00;58004.16;5084928;28;20277;-66
2021/08/29 05:21:59;;;;;;;466.10;436.98;;;;;;;-142.25;100.00;58004.16;5085152;28;20070;-66
2021/08/29 05:24:25;;;;;;;463.92;434.50;;;;;;;-142.25;100.00;58004.16;5084076;28;20118;-65
2021/08/29 05:26:50;;;;;;;462.05;433.60;;;;;;;-142.25;100.00;58004.16;5068540;28;20071;-65
2021/08/29 05:29:16;;;;;;;462.23;433.52;;;;;;;-142.25;100.00;58004.16;5082128;28;20050;-66
2021/08/29 05:31:41;;;;;;;434.30;407.60;;;;;;;-142.25;100.00;58004.16;5083823;28;20036;-66
2021/08/29 05:34:07;;;;;;;324.92;306.95;;;;;;;-142.25;100.00;58004.16;5085250;28;20071;-66
2021/08/29 05:36:32;;;;;;;323.88;306.27;;;;;;;-142.25;100.00;58004.16;5083330;28;20036;-66
2021/08/29 05:38:57;;;;;;;342.30;323.00;;;;;;;-142.25;100.00;58004.16;5084194;28;20028;-66
2021/08/29 05:41:23;;;;;;;375.05;354.13;;;;;;;-142.25;100.00;58004.16;5083832;28;20657;-66
2021/08/29 05:43:48;;;;;;;380.40;358.73;;;;;;;-142.25;100.00;58004.16;5086048;28;20024;-66
2021/08/29 05:46:14;;;;;;;368.88;347.80;;;;;;;-142.25;100.00;58004.16;5081909;28;20377;-66
2021/08/29 05:48:39;;;;;;;354.48;335.00;;;;;;;-142.25;100.00;58004.16;5084824;28;20405;-66
2021/08/29 05:51:05;;;;;;;361.73;342.08;;;;;;;-142.25;100.00;58004.16;5082570;28;20036;-66
2021/08/29 05:53:31;;;;;;;345.83;327.05;;;;;;;-142.25;100.00;58004.16;5083883;28;20038;-66
2021/08/29 05:55:56;;;;;;;329.27;310.83;;;;;;;-142.25;100.00;58004.16;5084275;28;20032;-66
2021/08/29 05:58:22;;;;;;;319.73;302.70;;;;;;;-142.25;100.00;58004.16;5075422;28;20039;-66
2021/08/29 06:00:48;;;;;;;354.02;335.10;;;;;;;-142.25;100.00;58004.16;5082971;28;20345;-66
2021/08/29 06:03:13;;;;;;;316.73;300.33;;;;;;;-142.25;100.00;58004.16;5079937;28;20040;-66
2021/08/29 06:05:38;;;;;;;297.98;282.77;;;;;;;-142.25;100.00;58004.16;5078907;28;20040;-66
2021/08/29 06:08:04;;;;;;;314.70;298.38;;;;;;;-142.25;100.00;58004.16;5082334;28;20043;-66
2021/08/29 06:10:30;;;;;;;277.13;263.33;;;;;;;-142.25;100.00;58004.16;5082426;28;20327;-66
2021/08/29 06:12:55;;;;;;;296.55;281.67;;;;;;;-142.25;100.00;58004.16;5080284;28;20025;-66
2021/08/29 06:15:20;;;;;;;299.45;283.85;;;;;;;-142.25;100.00;58004.16;5081224;28;20060;-66
2021/08/29 06:17:46;;;;;;;328.60;311.40;;;;;;;-142.25;100.00;58004.16;5081235;28;20032;-66
2021/08/29 06:20:12;;;;;;;303.42;288.02;;;;;;;-142.25;100.00;58004.16;5079483;28;20085;-66
2021/08/29 06:22:37;;;;;;;262.75;249.77;;;;;;;-142.25;100.00;58004.16;5079999;28;20377;-66
2021/08/29 06:25:03;;;;;;;273.63;260.13;;;;;;;-142.25;100.00;58004.16;5062878;28;20033;-66
2021/08/29 06:27:29;;;;;;;323.65;306.63;;;;;;;-142.25;100.00;58004.16;5065262;28;20078;-66
2021/08/29 06:29:54;;;;;;;302.17;287.00;;;;;;;-142.25;100.00;58004.16;5079467;28;20036;-66
2021/08/29 06:32:20;;;;;;;212.27;202.27;;;;;;;-142.25;100.00;58004.16;5082940;28;20105;-66
2021/08/29 06:34:46;;;;;;;293.92;279.27;;;;;;;-142.25;100.00;58004.16;5078964;28;20508;-66
2021/08/29 06:37:11;;;;;;;336.85;319.98;;;;;;;-142.25;100.00;58004.16;5066516;28;20071;-66
2021/08/29 06:39:37;;;;;;;393.00;371.75;;;;;;;-142.25;100.00;58004.16;5079966;28;20056;-66
2021/08/29 06:42:03;;;;;;;280.77;266.88;;;;;;;-142.25;100.00;58004.16;5080253;28;20289;-66
2021/08/29 06:44:28;;;;;;;279.63;265.33;;;;;;;-142.25;100.00;58004.16;5080578;28;20603;-66
2021/08/29 06:46:53;;;;;;;284.73;269.98;;;;;;;-142.25;100.00;58004.16;5080728;28;20535;-66
2021/08/29 06:49:19;;;;;;;309.42;293.23;;;;;;;-142.25;100.00;58004.16;5079072;28;20352;-66
2021/08/29 06:51:45;;;;;;;334.08;317.75;;;;;;;-142.25;100.00;58004.16;5078554;28;20384;-66
2021/08/29 06:54:10;;;;;;;369.95;350.77;;;;;;;-142.25;100.00;58004.16;5079451;28;20043;-66
2021/08/29 06:56:36;;;;;;;388.00;366.95;;;;;;;-142.25;100.00;58004.16;5078820;28;20117;-66
2021/08/29 06:59:02;;;;;;;363.00;344.13;;;;;;;-142.25;100.00;58004.16;5081896;28;20115;-66
2021/08/29 07:01:28;;;;;;;326.65;310.10;;;;;;;-142.25;100.00;58004.16;5078766;28;20100;-66
2021/08/29 07:03:53;;;;;;;239.80;227.73;;;;;;;-142.25;100.00;58004.16;5079716;28;20434;-66
2021/08/29 07:06:19;;;;;;;263.92;251.70;;;;;;;-142.25;100.00;58004.16;5079179;28;22279;-66
2021/08/29 07:08:44;;;;;;;260.65;247.57;;;;;;;-142.25;100.00;58004.16;5079947;28;20326;-66
2021/08/29 07:11:09;;;;;;;254.93;241.73;;;;;;;-142.25;100.00;58004.16;5079074;28;20036;-66
2021/08/29 07:13:35;;;;;;;300.40;285.45;;;;;;;-142.25;100.00;58004.16;5079443;28;20044;-66
2021/08/29 07:16:00;;;;;;;288.88;274.85;;;;;;;-142.25;100.00;58004.16;5080031;28;20057;-66
2021/08/29 07:18:26;;;;;;;212.93;202.93;;;;;;;-142.25;100.00;58004.16;5079271;28;20027;-66
2021/08/29 07:20:51;;;;;;;252.77;240.30;;;;;;;-142.25;100.00;58004.16;5081099;28;20092;-66
2021/08/29 07:23:17;;;;;;;220.57;210.05;;;;;;;-142.25;100.00;58004.16;5078098;28;20032;-66
2021/08/29 07:25:43;;;;;;;265.50;252.60;;;;;;;-142.25;100.00;58004.16;5080315;28;20123;-66
2021/08/29 07:28:09;;;;;;;323.98;307.75;;;;;;;-142.25;100.00;58004.16;5080636;28;20426;-66
2021/08/29 07:30:35;;;;;;;339.83;321.73;;;;;;;-142.25;100.00;58004.16;5080029;28;20036;-66
2021/08/29 07:33:00;;;;;;;316.92;301.35;;;;;;;-142.25;100.00;58004.16;5079156;28;20047;-66
2021/08/29 07:35:26;;;;;;;296.48;282.25;;;;;;;-142.25;100.00;58004.16;5080208;28;20108;-66
2021/08/29 07:37:51;;;;;;;281.77;268.25;;;;;;;-142.25;100.00;58004.16;5078958;28;20107;-65
2021/08/29 07:40:19;;;;;;;304.10;289.15;;;;;;;-142.25;100.00;58004.16;5061983;28;20344;-66
2021/08/29 07:42:46;;;;;;;316.65;300.50;;;;;;;-142.25;100.00;58004.16;5079441;28;20043;-65
2021/08/29 07:45:12;;;;;;;339.27;321.58;;;;;;;-142.25;100.00;58004.16;5079817;28;20035;-65
2021/08/29 07:47:37;;;;;;;321.15;305.70;;;;;;;-142.25;100.00;58004.16;5079385;28;20432;-65
2021/08/29 07:50:04;;;;;;;387.08;367.10;;;;;;;-142.25;100.00;58004.16;5080508;28;20374;-65
2021/08/29 07:52:30;;;;;;;324.27;308.20;;;;;;;-142.25;100.00;58004.16;5077857;28;20032;-65
2021/08/29 07:54:55;;;;;;;346.35;328.98;;;;;;;-142.25;100.00;58004.16;5079935;28;20273;-65
2021/08/29 07:57:20;;;;;;;379.83;360.70;;;;;;;-142.25;100.00;58004.16;5080079;28;20174;-65
2021/08/29 07:59:46;;;;;;;359.48;341.13;;;;;;;-142.25;100.00;58004.16;5078325;28;20454;-65
2021/08/29 08:02:13;;;;;;;368.15;348.92;;;;;;;-142.25;100.00;58004.16;5077909;28;20304;-65
2021/08/29 08:04:38;;;;;;;399.52;377.88;;;;;;;-142.25;100.00;58004.16;5055014;28;20056;-65
2021/08/29 08:07:04;;;;;;;486.52;460.08;;;;;;;-142.25;100.00;58004.16;5077188;28;20328;-66
2021/08/29 08:09:29;;;;;;;497.58;470.50;;;;;;;-142.25;100.00;58004.16;5079258;28;20036;-66
2021/08/29 08:11:55;;;;;;;555.95;525.13;;;;;;;-142.25;100.00;58004.16;5076489;28;20534;-67
2021/08/29 08:14:20;;;;;;;414.55;392.70;;;;;;;-142.25;100.00;58004.16;5077476;28;20042;-67
2021/08/29 08:16:45;;;;;;;406.67;385.40;;;;;;;-142.25;100.00;58004.16;5077063;28;20055;-67
2021/08/29 08:19:11;;;;;;;401.75;380.30;;;;;;;-142.25;100.00;58004.16;5079400;28;20063;-67
2021/08/29 08:21:36;;;;;;;453.63;430.08;;;;;;;-142.25;100.00;58004.16;5077394;28;20032;-67
2021/08/29 08:24:02;;;;;;;473.15;448.00;;;;;;;-142.25;100.00;58004.16;5078555;28;20043;-67
2021/08/29 08:26:27;;;;;;;497.10;470.05;;;;;;;-142.25;100.00;58004.16;5069933;28;20495;-67
2021/08/29 08:28:52;;;;;;;531.90;502.90;;;;;;;-142.25;100.00;58004.16;5078033;28;20032;-66
2021/08/29 08:31:20;;;;;;;521.55;492.90;;;;;;;-142.25;100.00;58004.16;5079095;28;20169;-67
2021/08/29 08:33:45;;;;;;;527.03;498.15;;;;;;;-142.25;100.00;58004.16;5076753;28;20417;-67
2021/08/29 08:36:10;;;;;;;556.67;525.78;;;;;;;-142.25;100.00;58004.16;5078469;28;20032;-67
2021/08/29 08:38:36;;;;;;;527.28;498.92;;;;;;;-142.25;100.00;58004.16;5077878;28;20036;-67
2021/08/29 08:41:01;;;;;;;519.55;491.65;;;;;;;-142.25;100.00;58004.16;5079298;28;20024;-67
2021/08/29 08:43:27;;;;;;;553.92;523.90;;;;;;;-142.25;100.00;58004.16;5077591;28;20444;-67
2021/08/29 08:45:53;;;;;;;622.42;587.42;;;;;;;-142.25;100.00;58004.16;5078116;28;20032;-67
2021/08/29 08:48:21;;;;;;;578.30;546.40;;;;;;;-142.25;100.00;58004.16;5079236;28;20461;-67
2021/08/29 08:50:50;;;;;;;619.85;585.08;;;;;;;-142.25;100.00;58004.16;5080664;28;20036;-67
2021/08/29 08:53:21;;;;;;;610.95;576.47;;;;;;;-142.25;100.00;58004.16;5078470;28;20315;-67
2021/08/29 08:55:47;;;;;;;562.22;530.78;;;;;;;-142.25;100.00;58004.16;5078173;28;20081;-67
2021/08/29 08:58:16;;;;;;;612.85;578.58;;;;;;;-142.25;100.00;58004.16;5077252;28;20033;-67
2021/08/29 09:00:42;;;;;;;614.38;579.63;;;;;;;-142.25;100.00;58004.16;5077471;28;20424;-67
2021/08/29 09:03:09;;;;;;;653.25;615.95;;;;;;;-142.25;100.00;58004.16;5078538;28;20115;-67
2021/08/29 09:05:36;;;;;;;654.28;617.35;;;;;;;-142.25;100.00;58004.16;5079984;28;20032;-67
2021/08/29 09:08:02;;;;;;;694.55;653.65;;;;;;;-142.25;100.00;58004.16;5074900;28;20036;-67
2021/08/29 09:10:27;;;;;;;738.85;695.63;;;;;;;-142.25;100.00;58004.16;5079657;28;20066;-66
2021/08/29 09:13:01;;;;;;;768.83;723.33;;;;;;;-142.25;100.00;58004.16;5079350;28;20090;-67
2021/08/29 09:15:27;;;;;;;759.20;714.38;;;;;;;-142.25;100.00;58004.16;5081081;28;20048;-67
2021/08/29 09:17:53;;;;;;;781.15;735.40;;;;;;;-142.25;100.00;58004.16;5076897;28;20032;-68
2021/08/29 09:20:36;;;;;;;731.35;688.70;;;;;;;-142.25;100.00;58004.16;5079531;28;20043;-67
2021/08/29 09:23:20;;;;;;;765.25;719.53;;;;;;;-142.25;100.00;58004.16;5070258;28;20039;-66
2021/08/29 09:25:45;;;;;;;770.35;724.50;;;;;;;-142.25;100.00;58004.16;5076770;28;20318;-67
2021/08/29 09:28:14;;;;;;;738.25;694.80;;;;;;;-142.25;100.00;58004.16;5078011;28;20031;-67
2021/08/29 09:30:45;;;;;;;736.63;693.55;;;;;;;-142.25;100.00;58004.16;5079565;28;20031;-67
2021/08/29 09:33:11;;;;;;;733.13;689.95;;;;;;;-142.25;100.00;58004.16;5078242;28;20491;-66
2021/08/29 09:35:37;;;;;;;699.13;658.65;;;;;;;-142.25;100.00;58004.16;5078654;28;20044;-66
2021/08/29 09:38:17;;;;;;;694.70;654.25;;;;;;;-142.25;100.00;58004.16;5079999;28;20071;-66
2021/08/29 09:40:42;;;;;;;694.95;654.60;;;;;;;-142.25;100.00;58004.16;5083134;28;20059;-66
2021/08/29 09:43:08;;;;;;;640.28;604.25;;;;;;;-142.25;100.00;58004.16;5082280;28;20074;-67
2021/08/29 09:45:37;;;;;;;673.28;634.53;;;;;;;-142.25;100.00;58004.16;5080995;28;20258;-67
2021/08/29 09:48:08;;;;;;;632.03;596.00;;;;;;;-142.25;100.00;58004.16;5082828;28;20154;-66
2021/08/29 09:50:37;;;;;;;626.15;591.15;;;;;;;-142.25;100.00;58004.16;5081976;28;20036;-67
2021/08/29 09:53:10;;;;;;;615.70;581.10;;;;;;;-142.25;100.00;58004.16;5082303;28;20036;-66
2021/08/29 09:55:38;;;;;;;631.22;595.58;;;;;;;-142.25;100.00;58004.16;5082275;28;20035;-66
2021/08/29 09:58:25;;;;;;;627.85;592.35;;;;;;;-142.25;100.00;58004.16;5082298;28;20120;-67
2021/08/29 10:01:12;;;;;;;615.67;581.42;;;;;;;-142.25;100.00;58004.16;5063991;28;20745;-66
2021/08/29 10:03:48;;;;;;;607.97;573.95;;;;;;;-142.25;100.00;58004.16;5081678;28;20028;-66
2021/08/29 10:06:15;;;;;;;603.15;569.63;;;;;;;-142.25;100.00;58004.16;5062705;28;20035;-65
2021/08/29 10:08:41;;;;;;;609.10;575.25;;;;;;;-142.25;100.00;58004.16;5080977;28;20032;-63
2021/08/29 10:11:08;;;;;;;594.65;561.15;;;;;;;-142.25;100.00;58004.16;5081352;28;20031;-65
2021/08/29 10:13:34;;;;;;;618.75;583.65;;;;;;;-142.25;100.00;58004.16;5078501;28;20381;-64
2021/08/29 10:16:01;;;;;;;602.92;568.85;;;;;;;-142.25;100.00;58004.16;5078902;28;20043;-65
2021/08/29 10:18:27;;;;;;;612.03;577.47;;;;;;;-142.25;100.00;58004.16;5079510;28;20039;-65
2021/08/29 10:20:52;;;;;;;605.63;571.55;;;;;;;-142.25;100.00;58004.16;5068127;28;20032;-64
2021/08/29 10:23:18;;;;;;;609.95;575.72;;;;;;;-142.25;100.00;58004.16;5079093;28;20050;-64
2021/08/29 10:25:45;;;;;;;670.28;632.03;;;;;;;-142.25;100.00;58004.16;5060925;28;20046;-64
2021/08/29 10:28:14;;;;;;;654.42;617.35;;;;;;;-142.25;100.00;58004.16;5070237;28;20037;-65
2021/08/29 10:30:41;;;;;;;671.25;632.38;;;;;;;-142.25;100.00;58004.16;5078670;28;20028;-64
2021/08/29 10:33:08;;;;;;;678.03;639.53;;;;;;;-142.25;100.00;58004.16;5081484;28;20035;-65
2021/08/29 10:35:34;;;;;;;633.72;597.65;;;;;;;-142.25;100.00;58004.16;5080116;28;20097;-65
2021/08/29 10:38:00;;;;;;;662.83;625.25;;;;;;;-142.25;100.00;58004.16;5078229;28;20029;-64